sensor_id;sensor_type;location;lat;lon;timestamp;pressure;altitude;pressure_sealevel;temperature;humidity
67434;BME280;54305;47.950;6.572;2023-06-14T00:00:57;93708.97;;;15.82;42.52
67434;BME280;54305;47.950;6.572;2023-06-14T00:03:22;93718.88;;;15.80;42.27
67434;BME280;54305;47.950;6.572;2023-06-14T00:05:49;93714.44;;;15.74;42.72
67434;BME280;54305;47.950;6.572;2023-06-14T00:08:15;93724.16;;;15.67;42.82
67434;BME280;54305;47.950;6.572;2023-06-14T00:10:40;93717.91;;;15.68;42.88
67434;BME280;54305;47.950;6.572;2023-06-14T00:16:09;93709.22;;;15.67;42.52
67434;BME280;54305;47.950;6.572;2023-06-14T00:18:35;93708.63;;;15.65;43.23
67434;BME280;54305;47.950;6.572;2023-06-14T00:21:00;93706.81;;;15.59;43.29
67434;BME280;54305;47.950;6.572;2023-06-14T00:23:27;93710.84;;;15.55;42.74
67434;BME280;54305;47.950;6.572;2023-06-14T00:25:52;93710.66;;;15.50;43.56
67434;BME280;54305;47.950;6.572;2023-06-14T00:28:17;93712.31;;;15.45;43.75
67434;BME280;54305;47.950;6.572;2023-06-14T00:30:42;93710.09;;;15.42;43.35
67434;BME280;54305;47.950;6.572;2023-06-14T00:33:11;93706.06;;;15.39;43.40
67434;BME280;54305;47.950;6.572;2023-06-14T00:35:36;93711.13;;;15.34;43.92
67434;BME280;54305;47.950;6.572;2023-06-14T00:38:01;93704.81;;;15.29;43.87
67434;BME280;54305;47.950;6.572;2023-06-14T00:40:27;93699.81;;;15.27;44.50
67434;BME280;54305;47.950;6.572;2023-06-14T00:42:52;93700.41;;;15.23;44.23
67434;BME280;54305;47.950;6.572;2023-06-14T00:45:17;93708.47;;;15.21;44.10
67434;BME280;54305;47.950;6.572;2023-06-14T00:59:51;93711.13;;;15.02;45.22
67434;BME280;54305;47.950;6.572;2023-06-14T01:02:17;93714.78;;;15.01;45.41
67434;BME280;54305;47.950;6.572;2023-06-14T01:04:43;93714.34;;;15.04;45.04
67434;BME280;54305;47.950;6.572;2023-06-14T01:09:58;93724.03;;;14.97;45.14
67434;BME280;54305;47.950;6.572;2023-06-14T01:15:14;93721.03;;;14.87;45.56
67434;BME280;54305;47.950;6.572;2023-06-14T01:17:40;93717.00;;;14.91;45.24
67434;BME280;54305;47.950;6.572;2023-06-14T01:20:09;93715.34;;;14.90;45.46
67434;BME280;54305;47.950;6.572;2023-06-14T01:22:37;93720.00;;;14.88;45.07
67434;BME280;54305;47.950;6.572;2023-06-14T01:25:02;93723.03;;;14.85;45.79
67434;BME280;54305;47.950;6.572;2023-06-14T01:27:28;93724.47;;;14.81;45.86
67434;BME280;54305;47.950;6.572;2023-06-14T01:29:53;93727.06;;;14.81;45.77
67434;BME280;54305;47.950;6.572;2023-06-14T01:32:22;93718.97;;;14.82;45.86
67434;BME280;54305;47.950;6.572;2023-06-14T01:34:48;93715.97;;;14.79;46.25
67434;BME280;54305;47.950;6.572;2023-06-14T01:37:13;93710.31;;;14.75;45.82
67434;BME280;54305;47.950;6.572;2023-06-14T01:39:39;93719.41;;;14.73;45.78
67434;BME280;54305;47.950;6.572;2023-06-14T01:42:04;93724.03;;;14.71;45.79
67434;BME280;54305;47.950;6.572;2023-06-14T01:44:31;93721.81;;;14.68;45.60
67434;BME280;54305;47.950;6.572;2023-06-14T01:46:56;93725.44;;;14.67;45.67
67434;BME280;54305;47.950;6.572;2023-06-14T01:49:22;93725.44;;;14.67;45.99
67434;BME280;54305;47.950;6.572;2023-06-14T01:51:48;93725.84;;;14.64;45.62
67434;BME280;54305;47.950;6.572;2023-06-14T01:54:13;93723.59;;;14.61;46.12
67434;BME280;54305;47.950;6.572;2023-06-14T01:56:38;93726.03;;;14.56;46.52
67434;BME280;54305;47.950;6.572;2023-06-14T01:59:03;93721.41;;;14.51;47.00
67434;BME280;54305;47.950;6.572;2023-06-14T02:01:29;93726.44;;;14.53;47.01
67434;BME280;54305;47.950;6.572;2023-06-14T02:03:54;93730.66;;;14.47;46.41
67434;BME280;54305;47.950;6.572;2023-06-14T02:06:19;93731.03;;;14.44;47.43
67434;BME280;54305;47.950;6.572;2023-06-14T02:08:44;93731.06;;;14.38;47.54
67434;BME280;54305;47.950;6.572;2023-06-14T02:11:10;93727.81;;;14.36;46.91
67434;BME280;54305;47.950;6.572;2023-06-14T02:13:35;93731.03;;;14.31;47.67
67434;BME280;54305;47.950;6.572;2023-06-14T02:16:00;93735.88;;;14.28;47.49
67434;BME280;54305;47.950;6.572;2023-06-14T02:18:26;93737.84;;;14.26;47.94
67434;BME280;54305;47.950;6.572;2023-06-14T02:20:52;93736.56;;;14.15;48.44
67434;BME280;54305;47.950;6.572;2023-06-14T02:23:17;93742.19;;;14.06;48.14
67434;BME280;54305;47.950;6.572;2023-06-14T02:25:43;93735.72;;;14.02;48.19
67434;BME280;54305;47.950;6.572;2023-06-14T02:28:09;93742.78;;;13.95;48.37
67434;BME280;54305;47.950;6.572;2023-06-14T02:30:35;93736.88;;;13.86;48.61
67434;BME280;54305;47.950;6.572;2023-06-14T02:33:00;93742.94;;;13.87;48.99
67434;BME280;54305;47.950;6.572;2023-06-14T02:35:25;93739.72;;;13.85;48.76
67434;BME280;54305;47.950;6.572;2023-06-14T02:37:51;93742.94;;;13.87;48.58
67434;BME280;54305;47.950;6.572;2023-06-14T02:40:17;93742.09;;;13.80;48.53
67434;BME280;54305;47.950;6.572;2023-06-14T02:42:42;93742.47;;;13.77;48.71
67434;BME280;54305;47.950;6.572;2023-06-14T02:45:08;93751.72;;;13.73;48.22
67434;BME280;54305;47.950;6.572;2023-06-14T02:47:33;93753.13;;;13.75;47.94
67434;BME280;54305;47.950;6.572;2023-06-14T02:49:58;93748.50;;;13.71;48.20
67434;BME280;54305;47.950;6.572;2023-06-14T02:52:24;93752.31;;;13.68;48.18
67434;BME280;54305;47.950;6.572;2023-06-14T02:54:50;93749.72;;;13.75;47.91
67434;BME280;54305;47.950;6.572;2023-06-14T02:57:15;93745.66;;;13.66;48.25
67434;BME280;54305;47.950;6.572;2023-06-14T02:59:41;93758.50;;;13.61;48.14
67434;BME280;54305;47.950;6.572;2023-06-14T03:02:06;93751.41;;;13.55;48.68
67434;BME280;54305;47.950;6.572;2023-06-14T03:04:31;93758.44;;;13.48;48.89
67434;BME280;54305;47.950;6.572;2023-06-14T03:07:02;93752.38;;;13.41;48.29
67434;BME280;54305;47.950;6.572;2023-06-14T03:09:34;93753.09;;;13.35;49.38
67434;BME280;54305;47.950;6.572;2023-06-14T03:11:59;93759.81;;;13.44;48.32
67434;BME280;54305;47.950;6.572;2023-06-14T03:14:25;93756.78;;;13.40;48.28
67434;BME280;54305;47.950;6.572;2023-06-14T03:16:50;93755.13;;;13.33;48.96
67434;BME280;54305;47.950;6.572;2023-06-14T03:19:16;93759.47;;;13.26;48.85
67434;BME280;54305;47.950;6.572;2023-06-14T03:21:41;93763.34;;;13.30;49.36
67434;BME280;54305;47.950;6.572;2023-06-14T03:24:09;93766.72;;;13.24;49.97
67434;BME280;54305;47.950;6.572;2023-06-14T03:26:34;93767.09;;;13.21;49.53
67434;BME280;54305;47.950;6.572;2023-06-14T03:29:02;93769.47;;;13.16;49.94
67434;BME280;54305;47.950;6.572;2023-06-14T03:31:28;93774.94;;;13.21;49.58
67434;BME280;54305;47.950;6.572;2023-06-14T03:33:57;93766.63;;;13.11;50.58
67434;BME280;54305;47.950;6.572;2023-06-14T03:36:22;93770.59;;;13.07;50.84
67434;BME280;54305;47.950;6.572;2023-06-14T03:38:48;93773.84;;;13.09;50.09
67434;BME280;54305;47.950;6.572;2023-06-14T03:41:13;93777.06;;;13.11;50.43
67434;BME280;54305;47.950;6.572;2023-06-14T03:43:38;93778.66;;;13.05;49.54
67434;BME280;54305;47.950;6.572;2023-06-14T03:46:03;93782.06;;;13.06;49.89
67434;BME280;54305;47.950;6.572;2023-06-14T03:48:29;93793.84;;;12.95;50.58
67434;BME280;54305;47.950;6.572;2023-06-14T03:50:54;93786.97;;;12.94;50.37
67434;BME280;54305;47.950;6.572;2023-06-14T03:53:21;93789.38;;;12.96;50.36
67434;BME280;54305;47.950;6.572;2023-06-14T03:55:48;93788.66;;;13.02;50.90
67434;BME280;54305;47.950;6.572;2023-06-14T03:58:14;93792.75;;;13.11;49.96
67434;BME280;54305;47.950;6.572;2023-06-14T04:00:39;93796.50;;;13.23;51.91
67434;BME280;54305;47.950;6.572;2023-06-14T04:03:05;93793.81;;;13.44;51.78
67434;BME280;54305;47.950;6.572;2023-06-14T04:05:30;93794.69;;;13.57;51.59
67434;BME280;54305;47.950;6.572;2023-06-14T04:07:56;93804.06;;;13.73;50.12
67434;BME280;54305;47.950;6.572;2023-06-14T04:10:22;93809.38;;;13.86;50.99
67434;BME280;54305;47.950;6.572;2023-06-14T04:12:47;93814.84;;;13.91;49.53
67434;BME280;54305;47.950;6.572;2023-06-14T04:15:12;93813.44;;;13.95;50.17
67434;BME280;54305;47.950;6.572;2023-06-14T04:17:38;93818.09;;;13.99;49.86
67434;BME280;54305;47.950;6.572;2023-06-14T04:20:04;93824.41;;;14.18;48.69
67434;BME280;54305;47.950;6.572;2023-06-14T04:22:30;93827.69;;;14.20;49.60
67434;BME280;54305;47.950;6.572;2023-06-14T04:24:56;93825.47;;;14.23;49.45
67434;BME280;54305;47.950;6.572;2023-06-14T04:27:22;93825.50;;;14.30;49.77
67434;BME280;54305;47.950;6.572;2023-06-14T04:29:50;93829.38;;;14.34;49.10
67434;BME280;54305;47.950;6.572;2023-06-14T04:32:21;93831.97;;;14.34;49.40
67434;BME280;54305;47.950;6.572;2023-06-14T04:34:46;93833.78;;;14.33;49.14
67434;BME280;54305;47.950;6.572;2023-06-14T04:37:12;93828.56;;;14.40;49.81
67434;BME280;54305;47.950;6.572;2023-06-14T04:39:38;93833.44;;;14.43;50.41
67434;BME280;54305;47.950;6.572;2023-06-14T04:42:03;93833.44;;;14.49;49.96
67434;BME280;54305;47.950;6.572;2023-06-14T04:44:29;93828.22;;;14.56;50.00
67434;BME280;54305;47.950;6.572;2023-06-14T04:46:56;93834.31;;;14.63;50.05
67434;BME280;54305;47.950;6.572;2023-06-14T04:49:23;93830.28;;;14.67;50.46
67434;BME280;54305;47.950;6.572;2023-06-14T04:51:49;93838.97;;;14.74;50.22
67434;BME280;54305;47.950;6.572;2023-06-14T04:54:22;93838.97;;;14.80;49.71
67434;BME280;54305;47.950;6.572;2023-06-14T04:56:49;93842.22;;;14.89;49.67
67434;BME280;54305;47.950;6.572;2023-06-14T04:59:15;93843.25;;;15.01;48.97
67434;BME280;54305;47.950;6.572;2023-06-14T05:01:42;93845.28;;;15.12;49.71
67434;BME280;54305;47.950;6.572;2023-06-14T05:04:16;93850.13;;;15.21;48.79
67434;BME280;54305;47.950;6.572;2023-06-14T05:06:41;93849.53;;;15.32;48.55
67434;BME280;54305;47.950;6.572;2023-06-14T05:09:07;93852.41;;;15.44;48.75
67434;BME280;54305;47.950;6.572;2023-06-14T05:11:32;93849.75;;;15.50;47.70
67434;BME280;54305;47.950;6.572;2023-06-14T05:13:57;93857.84;;;15.62;47.17
67434;BME280;54305;47.950;6.572;2023-06-14T05:16:23;93862.06;;;15.76;47.39
67434;BME280;54305;47.950;6.572;2023-06-14T05:18:50;93856.19;;;15.87;47.11
67434;BME280;54305;47.950;6.572;2023-06-14T05:21:17;93854.97;;;15.96;47.13
67434;BME280;54305;47.950;6.572;2023-06-14T05:23:43;93861.03;;;16.03;46.97
67434;BME280;54305;47.950;6.572;2023-06-14T05:26:09;93865.84;;;16.19;46.02
67434;BME280;54305;47.950;6.572;2023-06-14T05:28:34;93865.81;;;16.32;46.75
67434;BME280;54305;47.950;6.572;2023-06-14T05:31:00;93858.50;;;16.47;46.44
67434;BME280;54305;47.950;6.572;2023-06-14T05:33:25;93860.06;;;16.61;45.74
67434;BME280;54305;47.950;6.572;2023-06-14T05:35:51;93866.44;;;16.78;46.02
67434;BME280;54305;47.950;6.572;2023-06-14T05:38:16;93856.88;;;16.90;45.24
67434;BME280;54305;47.950;6.572;2023-06-14T05:40:42;93864.69;;;17.03;44.43
67434;BME280;54305;47.950;6.572;2023-06-14T05:43:07;93869.69;;;17.17;45.05
67434;BME280;54305;47.950;6.572;2023-06-14T05:45:32;93859.69;;;17.26;42.93
67434;BME280;54305;47.950;6.572;2023-06-14T05:47:57;93866.94;;;17.37;44.58
67434;BME280;54305;47.950;6.572;2023-06-14T05:50:23;93869.47;;;17.50;43.75
67434;BME280;54305;47.950;6.572;2023-06-14T05:52:48;93865.16;;;17.62;43.63
67434;BME280;54305;47.950;6.572;2023-06-14T05:55:13;93869.13;;;17.71;43.63
67434;BME280;54305;47.950;6.572;2023-06-14T05:57:38;93873.38;;;17.90;44.59
67434;BME280;54305;47.950;6.572;2023-06-14T06:00:04;93874.16;;;17.97;43.17
67434;BME280;54305;47.950;6.572;2023-06-14T06:02:36;93875.66;;;18.11;42.70
67434;BME280;54305;47.950;6.572;2023-06-14T06:05:01;93870.25;;;18.24;42.37
67434;BME280;54305;47.950;6.572;2023-06-14T06:07:27;93868.50;;;18.36;42.29
67434;BME280;54305;47.950;6.572;2023-06-14T06:09:52;93887.06;;;18.47;41.41
67434;BME280;54305;47.950;6.572;2023-06-14T06:12:17;93873.47;;;18.62;41.34
67434;BME280;54305;47.950;6.572;2023-06-14T06:14:43;93874.50;;;18.79;40.78
67434;BME280;54305;47.950;6.572;2023-06-14T06:17:08;93879.63;;;18.92;41.89
67434;BME280;54305;47.950;6.572;2023-06-14T06:19:33;93877.84;;;19.04;41.81
67434;BME280;54305;47.950;6.572;2023-06-14T06:21:58;93881.69;;;19.19;40.68
67434;BME280;54305;47.950;6.572;2023-06-14T06:24:24;93876.50;;;19.31;40.88
67434;BME280;54305;47.950;6.572;2023-06-14T06:26:49;93876.88;;;19.46;40.81
67434;BME280;54305;47.950;6.572;2023-06-14T06:29:14;93878.72;;;19.57;40.74
67434;BME280;54305;47.950;6.572;2023-06-14T06:31:40;93875.31;;;19.68;38.87
67434;BME280;54305;47.950;6.572;2023-06-14T06:34:05;93881.63;;;19.67;40.28
67434;BME280;54305;47.950;6.572;2023-06-14T06:36:30;93882.34;;;19.74;40.30
67434;BME280;54305;47.950;6.572;2023-06-14T06:38:55;93884.41;;;19.83;38.70
67434;BME280;54305;47.950;6.572;2023-06-14T06:41:21;93882.47;;;20.02;38.57
67434;BME280;54305;47.950;6.572;2023-06-14T06:43:46;93885.03;;;20.20;39.90
67434;BME280;54305;47.950;6.572;2023-06-14T06:46:11;93890.09;;;20.33;40.39
67434;BME280;54305;47.950;6.572;2023-06-14T06:48:37;93889.75;;;20.41;40.30
67434;BME280;54305;47.950;6.572;2023-06-14T06:51:03;93898.59;;;20.58;39.71
67434;BME280;54305;47.950;6.572;2023-06-14T06:53:28;93896.72;;;20.70;39.18
67434;BME280;54305;47.950;6.572;2023-06-14T06:55:53;93895.69;;;20.83;39.16
67434;BME280;54305;47.950;6.572;2023-06-14T06:58:18;93900.38;;;21.04;38.97
67434;BME280;54305;47.950;6.572;2023-06-14T07:00:44;93894.56;;;21.18;37.53
67434;BME280;54305;47.950;6.572;2023-06-14T07:03:09;93895.13;;;21.20;37.96
67434;BME280;54305;47.950;6.572;2023-06-14T07:05:35;93895.94;;;21.21;37.86
67434;BME280;54305;47.950;6.572;2023-06-14T07:08:00;93904.81;;;21.15;37.31
67434;BME280;54305;47.950;6.572;2023-06-14T07:10:25;93905.84;;;21.25;37.07
67434;BME280;54305;47.950;6.572;2023-06-14T07:12:51;93908.28;;;21.43;37.79
67434;BME280;54305;47.950;6.572;2023-06-14T07:15:16;93918.72;;;21.50;36.97
67434;BME280;54305;47.950;6.572;2023-06-14T07:17:41;93905.91;;;21.58;36.33
67434;BME280;54305;47.950;6.572;2023-06-14T07:20:07;93909.31;;;21.42;35.58
67434;BME280;54305;47.950;6.572;2023-06-14T07:22:34;93908.66;;;21.63;35.27
67434;BME280;54305;47.950;6.572;2023-06-14T07:24:59;93909.44;;;21.64;35.01
67434;BME280;54305;47.950;6.572;2023-06-14T07:27:24;93905.25;;;21.79;35.65
67434;BME280;54305;47.950;6.572;2023-06-14T07:29:49;93909.78;;;21.67;35.27
67434;BME280;54305;47.950;6.572;2023-06-14T07:32:15;93910.25;;;21.64;34.88
67434;BME280;54305;47.950;6.572;2023-06-14T07:34:40;93905.81;;;21.98;34.59
67434;BME280;54305;47.950;6.572;2023-06-14T07:37:05;93906.09;;;21.96;35.92
67434;BME280;54305;47.950;6.572;2023-06-14T07:39:30;93911.06;;;22.09;35.38
67434;BME280;54305;47.950;6.572;2023-06-14T07:41:56;93910.56;;;22.12;34.36
67434;BME280;54305;47.950;6.572;2023-06-14T07:44:21;93913.53;;;21.99;35.99
67434;BME280;54305;47.950;6.572;2023-06-14T07:46:46;93917.16;;;22.10;35.57
67434;BME280;54305;47.950;6.572;2023-06-14T07:49:14;93910.66;;;22.34;35.77
67434;BME280;54305;47.950;6.572;2023-06-14T07:51:39;93912.41;;;22.28;35.00
67434;BME280;54305;47.950;6.572;2023-06-14T07:54:05;93920.38;;;22.28;34.47
67434;BME280;54305;47.950;6.572;2023-06-14T07:56:32;93913.88;;;22.52;32.96
67434;BME280;54305;47.950;6.572;2023-06-14T07:58:57;93910.75;;;22.55;34.21
67434;BME280;54305;47.950;6.572;2023-06-14T08:01:22;93904.81;;;22.70;35.02
67434;BME280;54305;47.950;6.572;2023-06-14T08:03:50;93897.53;;;22.60;32.44
67434;BME280;54305;47.950;6.572;2023-06-14T08:06:15;93903.13;;;22.80;34.54
67434;BME280;54305;47.950;6.572;2023-06-14T08:08:40;93904.78;;;22.86;32.00
67434;BME280;54305;47.950;6.572;2023-06-14T08:11:06;93902.06;;;23.03;31.07
67434;BME280;54305;47.950;6.572;2023-06-14T08:13:31;93901.84;;;23.26;33.19
67434;BME280;54305;47.950;6.572;2023-06-14T08:15:57;93901.94;;;23.14;33.76
67434;BME280;54305;47.950;6.572;2023-06-14T08:18:23;93898.50;;;23.35;32.67
67434;BME280;54305;47.950;6.572;2023-06-14T08:20:48;93901.22;;;23.40;29.92
67434;BME280;54305;47.950;6.572;2023-06-14T08:23:14;93901.94;;;23.57;31.36
67434;BME280;54305;47.950;6.572;2023-06-14T08:25:40;93904.63;;;23.89;34.29
67434;BME280;54305;47.950;6.572;2023-06-14T08:28:06;93910.88;;;23.99;31.86
67434;BME280;54305;47.950;6.572;2023-06-14T08:30:31;93905.03;;;24.02;31.42
67434;BME280;54305;47.950;6.572;2023-06-14T08:32:56;93903.34;;;24.23;32.30
67434;BME280;54305;47.950;6.572;2023-06-14T08:35:22;93903.91;;;24.61;33.32
67434;BME280;54305;47.950;6.572;2023-06-14T08:37:47;93912.19;;;24.60;30.55
67434;BME280;54305;47.950;6.572;2023-06-14T08:40:21;93911.00;;;24.46;31.56
67434;BME280;54305;47.950;6.572;2023-06-14T08:42:54;93911.53;;;24.89;30.51
67434;BME280;54305;47.950;6.572;2023-06-14T08:45:20;93910.16;;;25.28;30.96
67434;BME280;54305;47.950;6.572;2023-06-14T08:47:47;93916.50;;;25.17;30.82
67434;BME280;54305;47.950;6.572;2023-06-14T08:50:26;93914.97;;;25.31;30.01
67434;BME280;54305;47.950;6.572;2023-06-14T08:52:57;93912.59;;;24.83;28.99
67434;BME280;54305;47.950;6.572;2023-06-14T08:55:25;93920.19;;;25.11;30.93
67434;BME280;54305;47.950;6.572;2023-06-14T08:57:53;93919.25;;;25.37;30.07
67434;BME280;54305;47.950;6.572;2023-06-14T09:00:19;93919.09;;;25.07;28.17
67434;BME280;54305;47.950;6.572;2023-06-14T09:02:45;93925.66;;;25.31;28.90
67434;BME280;54305;47.950;6.572;2023-06-14T09:05:11;93920.31;;;24.80;25.97
67434;BME280;54305;47.950;6.572;2023-06-14T09:07:39;93916.94;;;24.99;28.47
67434;BME280;54305;47.950;6.572;2023-06-14T09:10:14;93917.16;;;25.39;30.09
67434;BME280;54305;47.950;6.572;2023-06-14T09:12:40;93913.47;;;25.60;27.87
67434;BME280;54305;47.950;6.572;2023-06-14T09:15:06;93915.72;;;25.98;28.71
67434;BME280;54305;47.950;6.572;2023-06-14T09:17:33;93918.09;;;25.90;27.75
67434;BME280;54305;47.950;6.572;2023-06-14T09:20:00;93915.09;;;25.66;26.42
67434;BME280;54305;47.950;6.572;2023-06-14T09:22:25;93919.91;;;25.64;26.94
67434;BME280;54305;47.950;6.572;2023-06-14T09:24:50;93927.28;;;25.42;27.44
67434;BME280;54305;47.950;6.572;2023-06-14T09:27:16;93919.28;;;25.47;26.79
67434;BME280;54305;47.950;6.572;2023-06-14T09:29:41;93921.00;;;25.88;28.76
67434;BME280;54305;47.950;6.572;2023-06-14T09:32:06;93926.94;;;26.20;27.08
67434;BME280;54305;47.950;6.572;2023-06-14T09:34:32;93924.81;;;26.27;26.32
67434;BME280;54305;47.950;6.572;2023-06-14T09:36:58;93914.66;;;26.29;26.54
67434;BME280;54305;47.950;6.572;2023-06-14T09:39:23;93925.84;;;26.01;24.95
67434;BME280;54305;47.950;6.572;2023-06-14T09:41:50;93928.00;;;26.09;26.32
67434;BME280;54305;47.950;6.572;2023-06-14T09:44:15;93924.25;;;26.35;25.12
67434;BME280;54305;47.950;6.572;2023-06-14T09:46:43;93924.25;;;26.30;27.21
67434;BME280;54305;47.950;6.572;2023-06-14T09:49:09;93923.47;;;26.10;24.96
67434;BME280;54305;47.950;6.572;2023-06-14T09:51:34;93921.88;;;26.79;25.83
67434;BME280;54305;47.950;6.572;2023-06-14T09:54:02;93923.69;;;27.03;27.18
67434;BME280;54305;47.950;6.572;2023-06-14T09:56:33;93924.72;;;27.07;27.04
67434;BME280;54305;47.950;6.572;2023-06-14T09:58:59;93925.81;;;27.01;26.87
67434;BME280;54305;47.950;6.572;2023-06-14T10:01:28;93939.22;;;26.86;23.72
67434;BME280;54305;47.950;6.572;2023-06-14T10:03:55;93933.91;;;26.76;24.43
67434;BME280;54305;47.950;6.572;2023-06-14T10:06:24;93936.03;;;26.89;24.65
67434;BME280;54305;47.950;6.572;2023-06-14T10:08:55;93932.28;;;26.55;24.73
67434;BME280;54305;47.950;6.572;2023-06-14T10:11:21;93930.69;;;26.64;25.35
67434;BME280;54305;47.950;6.572;2023-06-14T10:13:46;93927.44;;;26.97;26.44
67434;BME280;54305;47.950;6.572;2023-06-14T10:16:15;93919.81;;;27.44;26.21
67434;BME280;54305;47.950;6.572;2023-06-14T10:21:13;93917.31;;;26.69;24.41
67434;BME280;54305;47.950;6.572;2023-06-14T10:23:42;93915.50;;;27.58;26.35
67434;BME280;54305;47.950;6.572;2023-06-14T10:26:08;93929.75;;;27.97;25.37
67434;BME280;54305;47.950;6.572;2023-06-14T10:28:34;93920.16;;;28.30;26.61
67434;BME280;54305;47.950;6.572;2023-06-14T10:31:03;93909.53;;;28.15;25.60
67434;BME280;54305;47.950;6.572;2023-06-14T10:33:32;93901.81;;;26.86;25.26
67434;BME280;54305;47.950;6.572;2023-06-14T10:36:07;93908.63;;;27.37;25.59
67434;BME280;54305;47.950;6.572;2023-06-14T10:38:33;93913.78;;;28.21;27.64
67434;BME280;54305;47.950;6.572;2023-06-14T10:40:59;93911.84;;;28.31;24.91
67434;BME280;54305;47.950;6.572;2023-06-14T10:43:25;93912.91;;;28.30;23.33
67434;BME280;54305;47.950;6.572;2023-06-14T10:48:34;93906.81;;;27.86;22.03
67434;BME280;54305;47.950;6.572;2023-06-14T10:51:05;93917.09;;;28.46;25.07
67434;BME280;54305;47.950;6.572;2023-06-14T10:53:36;93904.72;;;27.68;22.61
67434;BME280;54305;47.950;6.572;2023-06-14T10:56:07;93903.25;;;27.47;26.31
67434;BME280;54305;47.950;6.572;2023-06-14T10:58:33;93904.81;;;28.02;25.69
67434;BME280;54305;47.950;6.572;2023-06-14T11:00:58;93905.25;;;28.52;24.55
67434;BME280;54305;47.950;6.572;2023-06-14T11:03:31;93901.78;;;28.80;23.77
67434;BME280;54305;47.950;6.572;2023-06-14T11:06:01;93903.34;;;28.58;24.64
67434;BME280;54305;47.950;6.572;2023-06-14T11:08:46;93905.84;;;28.49;24.58
67434;BME280;54305;47.950;6.572;2023-06-14T11:11:16;93905.72;;;29.16;23.76
67434;BME280;54305;47.950;6.572;2023-06-14T11:13:43;93904.25;;;27.61;23.79
67434;BME280;54305;47.950;6.572;2023-06-14T11:16:16;93902.84;;;26.95;27.00
67434;BME280;54305;47.950;6.572;2023-06-14T11:18:42;93895.34;;;27.71;27.05
67434;BME280;54305;47.950;6.572;2023-06-14T11:21:08;93896.78;;;28.40;26.63
67434;BME280;54305;47.950;6.572;2023-06-14T11:23:34;93901.69;;;28.90;25.99
67434;BME280;54305;47.950;6.572;2023-06-14T11:26:00;93897.66;;;28.64;23.21
67434;BME280;54305;47.950;6.572;2023-06-14T11:28:34;93898.91;;;29.00;22.24
67434;BME280;54305;47.950;6.572;2023-06-14T11:31:00;93903.44;;;28.04;24.40
67434;BME280;54305;47.950;6.572;2023-06-14T11:33:25;93899.84;;;27.80;22.30
67434;BME280;54305;47.950;6.572;2023-06-14T11:35:51;93900.25;;;28.46;22.41
67434;BME280;54305;47.950;6.572;2023-06-14T11:38:17;93887.84;;;27.09;24.17
67434;BME280;54305;47.950;6.572;2023-06-14T11:40:42;93893.16;;;28.21;25.46
67434;BME280;54305;47.950;6.572;2023-06-14T11:43:07;93893.22;;;28.78;24.36
67434;BME280;54305;47.950;6.572;2023-06-14T11:45:33;93898.75;;;29.15;25.36
67434;BME280;54305;47.950;6.572;2023-06-14T11:47:58;93888.25;;;29.42;21.01
67434;BME280;54305;47.950;6.572;2023-06-14T11:50:24;93892.81;;;27.94;24.14
67434;BME280;54305;47.950;6.572;2023-06-14T11:52:53;93889.56;;;28.69;25.70
67434;BME280;54305;47.950;6.572;2023-06-14T11:55:19;93889.28;;;29.46;23.82
67434;BME280;54305;47.950;6.572;2023-06-14T11:57:46;93880.56;;;29.54;22.69
67434;BME280;54305;47.950;6.572;2023-06-14T12:00:11;93881.00;;;30.22;23.75
67434;BME280;54305;47.950;6.572;2023-06-14T12:02:37;93892.06;;;29.78;24.71
67434;BME280;54305;47.950;6.572;2023-06-14T12:05:06;93883.06;;;30.06;23.68
67434;BME280;54305;47.950;6.572;2023-06-14T12:07:34;93877.00;;;30.70;24.14
67434;BME280;54305;47.950;6.572;2023-06-14T12:12:26;93877.84;;;30.65;22.16
67434;BME280;54305;47.950;6.572;2023-06-14T12:14:51;93874.72;;;30.77;21.20
67434;BME280;54305;47.950;6.572;2023-06-14T12:17:17;93875.56;;;30.59;21.73
67434;BME280;54305;47.950;6.572;2023-06-14T12:19:43;93864.88;;;30.99;21.79
67434;BME280;54305;47.950;6.572;2023-06-14T12:22:09;93867.28;;;30.23;22.33
67434;BME280;54305;47.950;6.572;2023-06-14T12:24:34;93879.38;;;29.42;21.54
67434;BME280;54305;47.950;6.572;2023-06-14T12:27:00;93876.84;;;29.08;23.73
67434;BME280;54305;47.950;6.572;2023-06-14T12:29:27;93877.28;;;29.62;23.52
67434;BME280;54305;47.950;6.572;2023-06-14T12:31:53;93868.97;;;29.40;22.21
67434;BME280;54305;47.950;6.572;2023-06-14T12:34:19;93866.00;;;30.34;24.32
67434;BME280;54305;47.950;6.572;2023-06-14T12:36:45;93881.00;;;30.72;23.40
67434;BME280;54305;47.950;6.572;2023-06-14T12:39:11;93870.59;;;29.78;22.45
67434;BME280;54305;47.950;6.572;2023-06-14T12:41:36;93874.06;;;30.34;25.14
67434;BME280;54305;47.950;6.572;2023-06-14T12:44:02;93875.81;;;30.89;24.91
67434;BME280;54305;47.950;6.572;2023-06-14T12:46:30;93874.69;;;31.49;21.43
67434;BME280;54305;47.950;6.572;2023-06-14T12:48:56;93876.47;;;29.99;21.33
67434;BME280;54305;47.950;6.572;2023-06-14T12:51:21;93878.53;;;30.25;23.09
67434;BME280;54305;47.950;6.572;2023-06-14T12:53:47;93876.44;;;30.86;23.58
67434;BME280;54305;47.950;6.572;2023-06-14T12:56:13;93870.78;;;31.28;23.46
67434;BME280;54305;47.950;6.572;2023-06-14T12:58:39;93873.66;;;31.18;23.18
67434;BME280;54305;47.950;6.572;2023-06-14T13:01:04;93878.06;;;31.41;22.43
67434;BME280;54305;47.950;6.572;2023-06-14T13:03:29;93889.25;;;31.21;23.30
67434;BME280;54305;47.950;6.572;2023-06-14T13:05:55;93874.81;;;30.72;22.36
67434;BME280;54305;47.950;6.572;2023-06-14T13:08:20;93889.09;;;29.61;25.56
67434;BME280;54305;47.950;6.572;2023-06-14T13:10:45;93876.22;;;29.82;25.21
67434;BME280;54305;47.950;6.572;2023-06-14T13:13:10;93884.09;;;30.47;25.82
67434;BME280;54305;47.950;6.572;2023-06-14T13:15:37;93883.78;;;30.81;25.12
67434;BME280;54305;47.950;6.572;2023-06-14T13:18:03;93878.22;;;30.91;24.54
67434;BME280;54305;47.950;6.572;2023-06-14T13:20:29;93880.50;;;30.52;24.32
67434;BME280;54305;47.950;6.572;2023-06-14T13:22:54;93872.59;;;30.42;24.77